Time;durP1;ratioP1;P1;durP2;ratioP2;P2;SDS_P1;SDS_P2;PMS_P1;PMS_P2;Temp;Humidity;BMP_temperature;BMP_pressure;BME280_temperature;BME280_humidity;BME280_pressure;Samples;Min_cycle;Max_cycle;Signal;HPM_P1;HPM_P2
2024/04/18 00:02:16;;;;;;;;;;;6.90;80.20;;;;;;5462729;26;19960;-65
2024/04/18 00:04:44;;;;;;;;;;;7.00;80.30;;;;;;5459156;26;20493;-65
2024/04/18 00:07:10;;;;;;;;;;;6.90;80.30;;;;;;5459308;26;19939;-65
2024/04/18 00:09:39;;;;;;;;;;;6.90;80.30;;;;;;5461639;26;20374;-65
2024/04/18 00:12:05;;;;;;;;;;;6.90;80.50;;;;;;5465549;26;20364;-65
2024/04/18 00:14:52;;;;;;;;;;;6.90;80.40;;;;;;5461054;26;19956;-65
2024/04/18 00:17:18;;;;;;;;;;;6.90;80.40;;;;;;5463471;26;19928;-65
2024/04/18 00:19:46;;;;;;;;;;;6.80;80.30;;;;;;5461148;26;19941;-63
2024/04/18 00:22:30;;;;;;;;;;;6.80;80.50;;;;;;5448399;26;19928;-65
2024/04/18 00:25:06;;;;;;;;;;;6.90;80.30;;;;;;5457780;26;19996;-64
2024/04/18 00:27:51;;;;;;;;;;;6.80;80.30;;;;;;5459862;26;19928;-64
2024/04/18 00:30:42;;;;;;;;;;;6.80;80.30;;;;;;5462420;26;20262;-65
2024/04/18 00:33:08;;;;;;;;;;;6.70;80.30;;;;;;5464969;26;20026;-64
2024/04/18 00:35:40;;;;;;;;;;;6.70;80.40;;;;;;5464581;26;20367;-64
2024/04/18 00:38:12;;;;;;;;;;;6.70;80.40;;;;;;5457067;26;19933;-65
2024/04/18 00:40:44;;;;;;;;;;;6.70;80.20;;;;;;5459112;26;20379;-64
2024/04/18 00:43:19;;;;;;;;;;;6.70;80.20;;;;;;5453076;26;20009;-64
2024/04/18 00:45:56;;;;;;;;;;;6.60;80.20;;;;;;5453250;26;19932;-64
2024/04/18 00:48:22;;;;;;;;;;;6.60;80.20;;;;;;5453033;26;19928;-64
2024/04/18 00:50:51;;;;;;;;;;;6.50;80.20;;;;;;5460463;26;19939;-65
2024/04/18 00:53:21;;;;;;;;;;;6.50;80.30;;;;;;5456564;26;20275;-63
2024/04/18 00:55:53;;;;;;;;;;;6.60;80.40;;;;;;5455504;26;20372;-64
2024/04/18 00:58:40;;;;;;;;;;;6.60;80.50;;;;;;5456536;26;19996;-63
2024/04/18 01:01:25;;;;;;;;;;;6.60;80.70;;;;;;5462342;26;19939;-64
2024/04/18 01:03:54;;;;;;;;;;;6.60;80.70;;;;;;5444176;26;19935;-65
2024/04/18 01:06:41;;;;;;;;;;;6.60;81.00;;;;;;5455151;26;19934;-63
2024/04/18 01:09:14;;;;;;;;;;;6.60;80.90;;;;;;5462825;26;19928;-64
2024/04/18 01:12:02;;;;;;;;;;;6.60;80.90;;;;;;5456442;26;19930;-63
2024/04/18 01:14:29;;;;;;;;;;;6.70;81.00;;;;;;5460707;26;19928;-61
2024/04/18 01:20:43;;;;;;;;;;;6.70;80.90;;;;;;5448234;26;19956;-65
2024/04/18 01:23:09;;;;;;;;;;;6.70;80.70;;;;;;5457144;26;19932;-64
2024/04/18 01:25:44;;;;;;;;;;;6.70;80.70;;;;;;5459109;26;19928;-64
2024/04/18 01:28:12;;;;;;;;;;;6.70;80.80;;;;;;5459157;26;20980;-63
2024/04/18 01:31:00;;;;;;;;;;;6.70;80.80;;;;;;5460120;26;19928;-63
2024/04/18 01:33:26;;;;;;;;;;;6.60;80.90;;;;;;5449061;26;19940;-64
2024/04/18 01:35:55;;;;;;;;;;;6.70;80.80;;;;;;5455893;26;19939;-65
2024/04/18 01:38:21;;;;;;;;;;;6.70;80.70;;;;;;5458026;26;19940;-65
2024/04/18 01:40:50;;;;;;;;;;;6.70;80.70;;;;;;5451906;26;20271;-72
2024/04/18 01:43:37;;;;;;;;;;;6.70;80.60;;;;;;5448557;26;20281;-64
2024/04/18 01:46:25;;;;;;;;;;;6.60;80.70;;;;;;5455087;26;20388;-64
2024/04/18 01:49:00;;;;;;;;;;;6.70;80.70;;;;;;5455852;26;20359;-62
2024/04/18 01:52:07;;;;;;;;;;;6.60;80.80;;;;;;5453420;26;20283;-65
2024/04/18 01:54:33;;;;;;;;;;;6.60;80.70;;;;;;5460171;26;20364;-64
2024/04/18 01:57:06;;;;;;;;;;;6.70;80.90;;;;;;5458084;26;19932;-64
2024/04/18 01:59:53;;;;;;;;;;;6.70;80.90;;;;;;5459905;26;19978;-65
2024/04/18 02:02:22;;;;;;;;;;;6.60;80.80;;;;;;5462830;26;19935;-64
2024/04/18 02:05:09;;;;;;;;;;;6.70;80.80;;;;;;5461328;26;19935;-65
2024/04/18 02:07:44;;;;;;;;;;;6.60;80.90;;;;;;5444263;26;19935;-63
2024/04/18 02:10:12;;;;;;;;;;;6.60;80.90;;;;;;5459497;26;20001;-65
2024/04/18 02:12:57;;;;;;;;;;;6.60;80.90;;;;;;5460975;26;19935;-65
2024/04/18 02:15:47;;;;;;;;;;;6.60;81.00;;;;;;5461005;26;19934;-64
2024/04/18 02:18:13;;;;;;;;;;;6.60;80.90;;;;;;5457875;26;20351;-64
2024/04/18 02:20:45;;;;;;;;;;;6.60;81.10;;;;;;5461488;26;19939;-63
2024/04/18 02:23:22;;;;;;;;;;;6.60;81.10;;;;;;5461669;26;19951;-64
2024/04/18 02:25:51;;;;;;;;;;;6.60;81.10;;;;;;5453281;26;20275;-65
2024/04/18 02:28:17;;;;;;;;;;;6.50;81.20;;;;;;5463277;26;20256;-64
2024/04/18 02:30:48;;;;;;;;;;;6.50;81.20;;;;;;5458980;26;20015;-64
2024/04/18 02:33:15;;;;;;;;;;;6.60;81.20;;;;;;5458941;26;20033;-63
2024/04/18 02:35:46;;;;;;;;;;;6.60;81.30;;;;;;5457267;26;19936;-63
2024/04/18 02:38:31;;;;;;;;;;;6.50;81.20;;;;;;5459547;26;19978;-65
2024/04/18 02:41:03;;;;;;;;;;;6.50;81.40;;;;;;5460604;26;19932;-64
2024/04/18 02:43:48;;;;;;;;;;;6.50;81.30;;;;;;5458757;26;20259;-65
2024/04/18 02:46:19;;;;;;;;;;;6.50;81.20;;;;;;5462361;26;20390;-65
2024/04/18 02:49:04;;;;;;;;;;;6.50;81.30;;;;;;5452919;26;19940;-65
2024/04/18 02:51:33;;;;;;;;;;;6.50;81.40;;;;;;5450721;26;19940;-64
2024/04/18 02:54:11;;;;;;;;;;;6.50;81.50;;;;;;5461036;26;19939;-61
2024/04/18 02:56:40;;;;;;;;;;;6.50;81.60;;;;;;5458415;26;19960;-63
2024/04/18 02:59:10;;;;;;;;;;;6.50;81.60;;;;;;5459668;26;19935;-64
2024/04/18 03:01:53;;;;;;;;;;;6.60;81.70;;;;;;5461073;26;20279;-64
2024/04/18 03:04:20;;;;;;;;;;;6.60;81.70;;;;;;5458968;26;19948;-63
2024/04/18 03:06:49;;;;;;;;;;;6.60;81.70;;;;;;5457833;26;19936;-65
2024/04/18 03:09:15;;;;;;;;;;;6.60;81.60;;;;;;5456202;26;19928;-63
2024/04/18 03:11:57;;;;;;;;;;;6.50;81.70;;;;;;5461938;26;19928;-61
2024/04/18 03:14:38;;;;;;;;;;;6.50;81.70;;;;;;5462021;26;20012;-65
2024/04/18 03:17:12;;;;;;;;;;;6.50;81.70;;;;;;5438579;26;19929;-63
2024/04/18 03:19:59;;;;;;;;;;;6.50;81.80;;;;;;5446471;26;20071;-64
2024/04/18 03:22:25;;;;;;;;;;;6.50;81.80;;;;;;5458673;26;19935;-64
2024/04/18 03:24:59;;;;;;;;;;;6.60;81.90;;;;;;5451565;26;19936;-64
2024/04/18 03:27:26;;;;;;;;;;;6.60;82.00;;;;;;5455337;26;19957;-64
2024/04/18 03:29:54;;;;;;;;;;;6.60;82.00;;;;;;5452303;26;19936;-64
2024/04/18 03:32:36;;;;;;;;;;;6.60;81.90;;;;;;5450092;26;19936;-63
2024/04/18 03:35:04;;;;;;;;;;;6.70;81.90;;;;;;5449193;26;19944;-63
2024/04/18 03:37:33;;;;;;;;;;;6.70;81.90;;;;;;5457838;26;19936;-63
2024/04/18 03:40:22;;;;;;;;;;;6.70;82.30;;;;;;5460980;26;20002;-63
2024/04/18 03:43:11;;;;;;;;;;;6.70;82.20;;;;;;5456954;26;19928;-64
2024/04/18 03:45:39;;;;;;;;;;;6.60;82.50;;;;;;5453710;26;19935;-64
2024/04/18 03:48:29;;;;;;;;;;;6.60;82.50;;;;;;5458362;26;20367;-63
2024/04/18 03:50:55;;;;;;;;;;;6.70;82.70;;;;;;5459661;26;19928;-63
2024/04/18 03:53:25;;;;;;;;;;;6.70;82.70;;;;;;5452009;26;19928;-63
2024/04/18 03:56:23;;;;;;;;;;;6.70;82.80;;;;;;5452480;26;20329;-62
2024/04/18 03:58:49;;;;;;;;;;;6.70;82.90;;;;;;5459042;26;19936;-63
2024/04/18 04:01:18;;;;;;;;;;;6.70;83.10;;;;;;5458641;26;19940;-69
2024/04/18 04:03:46;;;;;;;;;;;6.60;83.30;;;;;;5454237;26;19936;-70
2024/04/18 04:06:15;;;;;;;;;;;6.70;83.50;;;;;;5464013;26;20038;-71
2024/04/18 04:08:41;;;;;;;;;;;6.70;83.50;;;;;;5458163;26;19936;-69
2024/04/18 04:11:13;;;;;;;;;;;6.70;83.50;;;;;;5456998;26;19939;-68
2024/04/18 04:13:39;;;;;;;;;;;6.70;83.50;;;;;;5462133;26;20395;-70
2024/04/18 04:16:18;;;;;;;;;;;6.70;83.50;;;;;;5459080;26;19938;-69
2024/04/18 04:18:52;;;;;;;;;;;6.70;83.30;;;;;;5452846;26;19928;-68
2024/04/18 04:21:39;;;;;;;;;;;6.70;83.30;;;;;;5457948;26;19935;-68
2024/04/18 04:24:06;;;;;;;;;;;6.70;83.30;;;;;;5460719;26;19928;-69
2024/04/18 04:26:52;;;;;;;;;;;6.70;83.40;;;;;;5459367;26;19927;-68
2024/04/18 04:29:18;;;;;;;;;;;6.70;83.50;;;;;;5457275;26;19961;-69
2024/04/18 04:31:47;;;;;;;;;;;6.70;83.50;;;;;;5454420;26;19932;-69
2024/04/18 04:34:16;;;;;;;;;;;6.70;83.50;;;;;;5454064;26;19935;-69
2024/04/18 04:36:44;;;;;;;;;;;6.70;83.60;;;;;;5465188;26;20379;-70
2024/04/18 04:39:10;;;;;;;;;;;6.70;83.50;;;;;;5456976;26;20349;-69
2024/04/18 04:41:42;;;;;;;;;;;6.70;83.60;;;;;;5460025;26;19940;-69
2024/04/18 04:44:08;;;;;;;;;;;6.70;83.80;;;;;;5456004;26;19964;-69
2024/04/18 04:46:52;;;;;;;;;;;6.70;83.90;;;;;;5451930;26;19963;-69
2024/04/18 04:49:20;;;;;;;;;;;6.70;84.00;;;;;;5457628;26;19928;-70
2024/04/18 04:52:04;;;;;;;;;;;6.70;84.00;;;;;;5459367;26;19996;-70
2024/04/18 04:54:41;;;;;;;;;;;6.70;84.00;;;;;;5465508;26;19967;-68
2024/04/18 04:57:10;;;;;;;;;;;6.70;84.00;;;;;;5459960;26;19932;-69
2024/04/18 04:59:37;;;;;;;;;;;6.80;84.00;;;;;;5459499;26;19929;-70
2024/04/18 05:02:05;;;;;;;;;;;6.70;84.00;;;;;;5461064;26;19943;-70
2024/04/18 05:04:50;;;;;;;;;;;6.70;84.20;;;;;;5457070;26;19939;-68
2024/04/18 05:07:33;;;;;;;;;;;6.70;84.20;;;;;;5459747;26;20383;-69
2024/04/18 05:10:18;;;;;;;;;;;6.70;84.20;;;;;;5457066;26;20353;-69
2024/04/18 05:12:47;;;;;;;;;;;6.70;84.30;;;;;;5462407;26;19929;-60
2024/04/18 05:15:33;;;;;;;;;;;6.70;84.30;;;;;;5457335;26;19932;-60
2024/04/18 05:18:01;;;;;;;;;;;6.80;84.30;;;;;;5457594;26;19928;-61
2024/04/18 05:20:30;;;;;;;;;;;6.80;84.30;;;;;;5459846;26;19928;-60
2024/04/18 05:22:59;;;;;;;;;;;6.80;84.30;;;;;;5459294;26;19997;-60
2024/04/18 05:25:25;;;;;;;;;;;6.90;84.30;;;;;;5461841;26;20355;-61
2024/04/18 05:28:20;;;;;;;;;;;6.90;84.30;;;;;;5458225;26;19935;-60
2024/04/18 05:31:02;;;;;;;;;;;6.80;84.30;;;;;;5456521;26;19929;-61
2024/04/18 05:33:31;;;;;;;;;;;6.90;84.10;;;;;;5461274;26;19997;-60
2024/04/18 05:36:03;;;;;;;;;;;6.90;84.20;;;;;;5459823;26;19928;-59
2024/04/18 05:38:31;;;;;;;;;;;6.90;84.00;;;;;;5457195;26;19985;-60
2024/04/18 05:41:00;;;;;;;;;;;7.00;84.20;;;;;;5452189;26;20022;-59
2024/04/18 05:43:47;;;;;;;;;;;7.00;84.10;;;;;;5460255;26;19943;-60
2024/04/18 05:46:13;;;;;;;;;;;7.00;84.10;;;;;;5458178;26;20025;-58
2024/04/18 05:48:42;;;;;;;;;;;7.00;84.10;;;;;;5461750;26;20000;-61
2024/04/18 05:51:14;;;;;;;;;;;7.10;84.00;;;;;;5458968;26;19995;-60
2024/04/18 05:54:14;;;;;;;;;;;7.10;83.80;;;;;;5453524;26;20601;-60
2024/04/18 05:57:03;;;;;;;;;;;7.10;83.90;;;;;;5461483;26;19928;-61
2024/04/18 05:59:53;;;;;;;;;;;7.20;83.50;;;;;;5454909;26;19936;-60
2024/04/18 06:02:27;;;;;;;;;;;7.20;83.50;;;;;;5461267;26;20363;-61
2024/04/18 06:04:56;;;;;;;;;;;7.20;83.30;;;;;;5457896;26;19935;-60
2024/04/18 06:07:46;;;;;;;;;;;7.20;83.40;;;;;;5462301;26;19935;-59
2024/04/18 06:10:14;;;;;;;;;;;7.20;83.30;;;;;;5460405;26;19943;-60
2024/04/18 06:12:43;;;;;;;;;;;7.20;83.20;;;;;;5464142;26;19928;-60
2024/04/18 06:15:12;;;;;;;;;;;7.20;83.20;;;;;;5456714;26;19929;-60
2024/04/18 06:17:41;;;;;;;;;;;7.30;83.20;;;;;;5463453;26;19964;-61
2024/04/18 06:20:10;;;;;;;;;;;7.20;83.30;;;;;;5455651;26;19944;-60
2024/04/18 06:22:38;;;;;;;;;;;7.20;83.70;;;;;;5461182;26;20412;-63
2024/04/18 06:25:29;;;;;;;;;;;7.20;83.70;;;;;;5460182;26;19929;-60
2024/04/18 06:27:58;;;;;;;;;;;7.20;83.90;;;;;;5459546;26;19929;-62
2024/04/18 06:30:27;;;;;;;;;;;7.20;84.20;;;;;;5460907;26;19928;-62
2024/04/18 06:32:56;;;;;;;;;;;7.20;84.20;;;;;;5460822;26;19935;-61
2024/04/18 06:35:24;;;;;;;;;;;7.20;84.10;;;;;;5452775;26;19935;-61
2024/04/18 06:37:53;;;;;;;;;;;7.20;84.30;;;;;;5459183;26;19995;-58
2024/04/18 06:40:23;;;;;;;;;;;7.20;84.40;;;;;;5456631;26;19932;-61
2024/04/18 06:42:55;;;;;;;;;;;7.20;84.30;;;;;;5451331;26;20390;-61
2024/04/18 06:45:24;;;;;;;;;;;7.20;84.20;;;;;;5456171;26;20275;-61
2024/04/18 06:47:53;;;;;;;;;;;7.20;84.20;;;;;;5459086;26;19935;-61
2024/04/18 06:50:22;;;;;;;;;;;7.20;84.30;;;;;;5462701;26;19932;-60
2024/04/18 06:52:50;;;;;;;;;;;7.20;84.10;;;;;;5458522;26;20382;-59
2024/04/18 06:55:21;;;;;;;;;;;7.20;84.10;;;;;;5457447;26;19935;-61
2024/04/18 06:57:50;;;;;;;;;;;7.30;84.20;;;;;;5459868;26;19929;-61
2024/04/18 07:00:21;;;;;;;;;;;7.30;84.20;;;;;;5456387;26;19929;-61
2024/04/18 07:02:50;;;;;;;;;;;7.30;84.00;;;;;;5460240;26;20372;-61
2024/04/18 07:05:37;;;;;;;;;;;7.30;83.90;;;;;;5450915;26;20546;-61
2024/04/18 07:08:24;;;;;;;;;;;7.30;84.10;;;;;;5453167;26;19952;-61
2024/04/18 07:10:53;;;;;;;;;;;7.30;84.10;;;;;;5457591;26;20374;-60
2024/04/18 07:13:31;;;;;;;;;;;7.30;84.20;;;;;;5460593;26;19928;-61
2024/04/18 07:16:07;;;;;;;;;;;7.30;84.20;;;;;;5464227;26;19928;-61
2024/04/18 07:18:54;;;;;;;;;;;7.30;84.30;;;;;;5468092;26;20079;-61
2024/04/18 07:21:23;;;;;;;;;;;7.30;84.10;;;;;;5457783;26;19935;-61
2024/04/18 07:23:52;;;;;;;;;;;7.40;84.00;;;;;;5467405;26;20355;-61
2024/04/18 07:26:39;;;;;;;;;;;7.40;84.10;;;;;;5456891;26;20340;-61
2024/04/18 07:29:07;;;;;;;;;;;7.40;84.30;;;;;;5463735;26;19936;-61
2024/04/18 07:31:39;;;;;;;;;;;7.40;84.30;;;;;;5456818;26;20023;-60
2024/04/18 07:34:14;;;;;;;;;;;7.40;84.20;;;;;;5460530;26;20252;-60
2024/04/18 07:36:42;;;;;;;;;;;7.40;84.20;;;;;;5460535;26;20022;-60
2024/04/18 07:39:11;;;;;;;;;;;7.40;84.20;;;;;;5465552;26;20014;-59
2024/04/18 07:41:39;;;;;;;;;;;7.40;84.40;;;;;;5461779;26;20009;-60
2024/04/18 07:44:11;;;;;;;;;;;7.40;84.30;;;;;;5458091;26;20000;-58
2024/04/18 07:46:44;;;;;;;;;;;7.40;84.20;;;;;;5458836;26;19935;-59
2024/04/18 07:49:13;;;;;;;;;;;7.60;84.00;;;;;;5462018;26;20492;-59
2024/04/18 07:51:42;;;;;;;;;;;7.70;84.10;;;;;;5456840;26;19960;-60
2024/04/18 07:54:11;;;;;;;;;;;7.80;83.80;;;;;;5461918;26;19936;-60
2024/04/18 07:56:40;;;;;;;;;;;8.00;83.70;;;;;;5456248;26;20573;-60
2024/04/18 07:59:08;;;;;;;;;;;8.10;83.40;;;;;;5466647;26;21606;-60
2024/04/18 08:01:37;;;;;;;;;;;8.20;83.50;;;;;;5459265;26;19935;-60
2024/04/18 08:04:08;;;;;;;;;;;8.30;83.50;;;;;;5465902;26;19928;-65
2024/04/18 08:06:37;;;;;;;;;;;8.30;83.40;;;;;;5461365;26;20314;-58
2024/04/18 08:09:06;;;;;;;;;;;8.40;83.30;;;;;;5464866;26;19944;-61
2024/04/18 08:11:35;;;;;;;;;;;8.60;83.00;;;;;;5451200;26;19997;-59
2024/04/18 08:14:03;;;;;;;;;;;8.60;83.00;;;;;;5462061;26;19928;-58
2024/04/18 08:16:32;;;;;;;;;;;8.60;82.80;;;;;;5458765;26;19936;-60
2024/04/18 08:19:00;;;;;;;;;;;8.60;82.60;;;;;;5456173;26;20033;-59
2024/04/18 08:21:32;;;;;;;;;;;8.60;82.60;;;;;;5462422;26;20021;-60
2024/04/18 08:24:01;;;;;;;;;;;8.60;82.70;;;;;;5459078;26;19935;-60
2024/04/18 08:26:30;;;;;;;;;;;8.60;82.70;;;;;;5455329;26;19928;-60
2024/04/18 08:28:59;;;;;;;;;;;8.70;82.60;;;;;;5465383;26;19928;-60
2024/04/18 08:31:28;;;;;;;;;;;8.70;82.30;;;;;;5458928;26;19928;-60
2024/04/18 08:33:57;;;;;;;;;;;8.90;81.90;;;;;;5462011;26;20021;-60
2024/04/18 08:36:26;;;;;;;;;;;9.10;81.70;;;;;;5457368;26;20005;-59
2024/04/18 08:38:57;;;;;;;;;;;9.20;81.50;;;;;;5460067;26;19932;-59
2024/04/18 08:41:26;;;;;;;;;;;9.30;81.20;;;;;;5460852;26;19940;-63
2024/04/18 08:43:55;;;;;;;;;;;9.30;81.00;;;;;;5458436;26;19943;-63
2024/04/18 08:46:24;;;;;;;;;;;9.30;81.00;;;;;;5455220;26;19971;-63
2024/04/18 08:48:53;;;;;;;;;;;9.20;81.30;;;;;;5462517;26;19943;-63
2024/04/18 08:51:22;;;;;;;;;;;9.20;81.40;;;;;;5463414;26;19987;-63
2024/04/18 08:53:51;;;;;;;;;;;9.30;81.40;;;;;;5463901;26;20363;-63
2024/04/18 08:56:24;;;;;;;;;;;9.30;81.20;;;;;;5458254;26;20301;-63
2024/04/18 08:58:53;;;;;;;;;;;9.30;81.00;;;;;;5464902;26;19940;-63
2024/04/18 09:01:22;;;;;;;;;;;9.40;81.00;;;;;;5459117;26;19928;-63
2024/04/18 09:03:50;;;;;;;;;;;9.40;80.70;;;;;;5463626;26;19934;-63
2024/04/18 09:06:19;;;;;;;;;;;9.50;80.80;;;;;;5460892;26;19935;-63
2024/04/18 09:08:51;;;;;;;;;;;9.40;80.40;;;;;;5458791;26;20476;-63
2024/04/18 09:11:22;;;;;;;;;;;9.40;80.30;;;;;;5454889;26;20376;-63
2024/04/18 09:13:51;;;;;;;;;;;9.30;80.30;;;;;;5493433;26;19936;-63
2024/04/18 09:16:20;;;;;;;;;;;9.40;79.90;;;;;;5464510;26;19929;-63
2024/04/18 09:18:49;;;;;;;;;;;9.40;79.70;;;;;;5460034;26;20109;-65
2024/04/18 09:21:17;;;;;;;;;;;9.50;79.40;;;;;;5458656;26;19928;-63
2024/04/18 09:23:46;;;;;;;;;;;9.60;78.90;;;;;;5463443;26;20257;-63
2024/04/18 09:26:14;;;;;;;;;;;9.70;78.40;;;;;;5461283;26;19968;-62
2024/04/18 09:28:47;;;;;;;;;;;9.90;77.80;;;;;;5455992;26;19940;-63
2024/04/18 09:31:18;;;;;;;;;;;10.00;77.40;;;;;;5456603;26;19928;-61
2024/04/18 09:33:47;;;;;;;;;;;10.10;76.40;;;;;;5462949;26;19928;-63
2024/04/18 09:36:18;;;;;;;;;;;10.10;76.00;;;;;;5461161;26;20271;-63
2024/04/18 09:38:48;;;;;;;;;;;10.10;75.60;;;;;;5458561;26;19935;-63
2024/04/18 09:41:17;;;;;;;;;;;10.10;75.50;;;;;;5458972;26;20516;-64
2024/04/18 09:43:52;;;;;;;;;;;10.20;74.70;;;;;;5463073;26;19938;-63
2024/04/18 09:46:21;;;;;;;;;;;10.10;74.40;;;;;;5456243;26;19928;-63
2024/04/18 09:48:49;;;;;;;;;;;10.10;74.30;;;;;;5458930;26;19934;-63
2024/04/18 09:51:19;;;;;;;;;;;10.00;74.30;;;;;;5459331;26;19928;-61
2024/04/18 09:53:48;;;;;;;;;;;10.10;74.30;;;;;;5460946;26;20367;-61
2024/04/18 09:56:19;;;;;;;;;;;10.20;74.10;;;;;;5461438;26;20025;-61
2024/04/18 09:58:52;;;;;;;;;;;10.40;73.90;;;;;;5459275;26;20262;-60
2024/04/18 10:01:21;;;;;;;;;;;10.90;73.10;;;;;;5455833;26;20432;-60
2024/04/18 10:03:50;;;;;;;;;;;11.20;72.50;;;;;;5458571;26;19996;-61
2024/04/18 10:06:20;;;;;;;;;;;11.40;71.90;;;;;;5462518;26;19941;-60
2024/04/18 10:08:50;;;;;;;;;;;11.70;71.00;;;;;;5464052;26;19928;-61
2024/04/18 10:11:20;;;;;;;;;;;12.10;70.10;;;;;;5456999;26;19929;-60
2024/04/18 10:13:52;;;;;;;;;;;12.40;68.60;;;;;;5450891;26;19997;-61
2024/04/18 10:16:22;;;;;;;;;;;12.60;67.30;;;;;;5455863;26;20427;-60
2024/04/18 10:18:51;;;;;;;;;;;12.70;67.00;;;;;;5460694;26;19936;-61
2024/04/18 10:21:26;;;;;;;;;;;12.90;65.90;;;;;;5456799;26;19961;-60
2024/04/18 10:23:56;;;;;;;;;;;12.80;65.80;;;;;;5459446;26;19929;-61
2024/04/18 10:26:25;;;;;;;;;;;12.70;65.10;;;;;;5461329;26;19953;-61
2024/04/18 10:28:56;;;;;;;;;;;12.70;65.20;;;;;;5452145;26;19935;-60
2024/04/18 10:31:29;;;;;;;;;;;13.10;64.40;;;;;;5454932;26;19937;-61
2024/04/18 10:33:58;;;;;;;;;;;13.20;64.00;;;;;;5457112;26;19931;-61
2024/04/18 10:36:27;;;;;;;;;;;13.00;64.10;;;;;;5461571;26;20387;-61
2024/04/18 10:38:53;;;;;;;;;;;12.70;63.00;;;;;;5456915;26;19975;-61
2024/04/18 10:41:24;;;;;;;;;;;12.50;64.00;;;;;;5459307;26;20269;-61
2024/04/18 10:43:57;;;;;;;;;;;12.30;63.80;;;;;;5454121;26;20320;-61
2024/04/18 10:46:26;;;;;;;;;;;12.10;64.50;;;;;;5459529;26;19985;-61
2024/04/18 10:48:56;;;;;;;;;;;11.90;65.90;;;;;;5457051;26;19962;-61
2024/04/18 10:51:26;;;;;;;;;;;11.70;67.10;;;;;;5460259;26;19944;-61
2024/04/18 10:53:55;;;;;;;;;;;11.50;67.60;;;;;;5462588;26;20001;-61
2024/04/18 10:56:24;;;;;;;;;;;11.30;68.10;;;;;;5462856;26;19928;-62
2024/04/18 10:58:53;;;;;;;;;;;11.30;68.40;;;;;;5455919;26;19928;-61
2024/04/18 11:01:24;;;;;;;;;;;11.30;68.80;;;;;;5462307;26;19939;-64
2024/04/18 11:03:51;;;;;;;;;;;11.30;68.60;;;;;;5456423;26;19937;-63
2024/04/18 11:06:20;;;;;;;;;;;11.30;69.20;;;;;;5464020;26;20353;-64
2024/04/18 11:08:51;;;;;;;;;;;11.30;69.40;;;;;;5465749;26;19960;-65
2024/04/18 11:11:24;;;;;;;;;;;11.20;69.50;;;;;;5459887;26;20021;-64
2024/04/18 11:13:52;;;;;;;;;;;11.50;69.60;;;;;;5462767;26;19951;-65
2024/04/18 11:16:24;;;;;;;;;;;11.90;68.90;;;;;;5465194;26;19929;-64
2024/04/18 11:18:53;;;;;;;;;;;12.30;67.90;;;;;;5462172;26;19939;-64
2024/04/18 11:21:19;;;;;;;;;;;12.60;66.90;;;;;;5463067;26;20017;-64
2024/04/18 11:23:52;;;;;;;;;;;12.90;66.30;;;;;;5465252;26;20355;-64
2024/04/18 11:26:21;;;;;;;;;;;13.20;65.90;;;;;;5463707;26;19941;-63
2024/04/18 11:28:50;;;;;;;;;;;13.40;64.60;;;;;;5462353;26;19991;-65
2024/04/18 11:31:18;;;;;;;;;;;13.50;63.80;;;;;;5461420;26;19947;-65
2024/04/18 11:33:50;;;;;;;;;;;13.40;64.00;;;;;;5451370;26;19939;-65
2024/04/18 11:36:19;;;;;;;;;;;13.20;63.60;;;;;;5452068;26;19928;-63
2024/04/18 11:38:49;;;;;;;;;;;12.90;62.60;;;;;;5450110;26;19928;-65
2024/04/18 11:41:19;;;;;;;;;;;12.70;60.30;;;;;;5446878;26;19928;-63
2024/04/18 11:43:48;;;;;;;;;;;12.60;61.00;;;;;;5457967;26;19997;-65
2024/04/18 11:46:17;;;;;;;;;;;12.60;60.20;;;;;;5455255;26;20390;-64
2024/04/18 11:48:45;;;;;;;;;;;12.50;59.90;;;;;;5457547;26;19928;-64
2024/04/18 11:51:17;;;;;;;;;;;12.50;60.70;;;;;;5456923;26;19940;-64
2024/04/18 11:53:45;;;;;;;;;;;12.40;60.60;;;;;;5450089;26;19939;-64
2024/04/18 11:56:34;;;;;;;;;;;12.40;60.20;;;;;;5452270;26;20356;-64
2024/04/18 11:59:03;;;;;;;;;;;12.50;59.70;;;;;;5458632;26;19932;-64
2024/04/18 12:01:34;;;;;;;;;;;12.70;59.60;;;;;;5462972;26;19929;-64
2024/04/18 12:04:20;;;;;;;;;;;12.80;58.70;;;;;;5456061;26;19943;-65
2024/04/18 12:06:52;;;;;;;;;;;13.00;59.50;;;;;;5452900;26;19937;-66
2024/04/18 12:09:30;;;;;;;;;;;13.10;57.70;;;;;;5445395;26;19928;-65
2024/04/18 12:12:01;;;;;;;;;;;13.10;57.70;;;;;;5454357;26;20267;-65
2024/04/18 12:14:46;;;;;;;;;;;13.20;57.90;;;;;;5455469;26;20026;-66
2024/04/18 12:17:27;;;;;;;;;;;13.30;57.50;;;;;;5449693;26;19928;-65
2024/04/18 12:20:16;;;;;;;;;;;13.40;57.60;;;;;;5457486;26;20324;-65
2024/04/18 12:22:48;;;;;;;;;;;13.50;57.70;;;;;;5444765;26;19984;-66
2024/04/18 12:25:17;;;;;;;;;;;13.70;58.30;;;;;;5458022;26;20324;-66
2024/04/18 12:27:43;;;;;;;;;;;14.00;58.30;;;;;;5454415;26;19985;-67
2024/04/18 12:30:31;;;;;;;;;;;14.20;58.00;;;;;;5461515;26;19935;-67
2024/04/18 12:33:18;;;;;;;;;;;14.20;58.20;;;;;;5448043;26;19936;-67
2024/04/18 12:35:47;;;;;;;;;;;14.40;56.60;;;;;;5451430;26;19928;-67
2024/04/18 12:38:18;;;;;;;;;;;14.40;56.70;;;;;;5453302;26;19935;-67
2024/04/18 12:40:47;;;;;;;;;;;14.40;56.20;;;;;;5454251;26;19960;-67
2024/04/18 12:43:14;;;;;;;;;;;14.30;55.70;;;;;;5452012;26;19928;-67
2024/04/18 12:45:55;;;;;;;;;;;14.30;56.50;;;;;;5459628;26;19928;-66
2024/04/18 12:48:44;;;;;;;;;;;14.20;56.30;;;;;;5461542;26;19944;-67
2024/04/18 12:51:12;;;;;;;;;;;14.00;56.60;;;;;;5455368;26;19940;-67
2024/04/18 12:53:47;;;;;;;;;;;13.90;57.30;;;;;;5457707;26;19935;-67
2024/04/18 12:56:17;;;;;;;;;;;13.70;57.70;;;;;;5456878;26;19936;-67
2024/04/18 12:58:46;;;;;;;;;;;13.60;57.90;;;;;;5454558;26;19979;-67
2024/04/18 13:01:15;;;;;;;;;;;13.50;56.90;;;;;;5457143;26;19932;-67
2024/04/18 13:03:44;;;;;;;;;;;13.40;58.10;;;;;;5453367;26;19977;-67
2024/04/18 13:06:31;;;;;;;;;;;13.30;57.30;;;;;;5461443;26;19935;-66
2024/04/18 13:09:03;;;;;;;;;;;13.10;58.40;;;;;;5445442;26;19927;-65
2024/04/18 13:11:44;;;;;;;;;;;12.90;59.40;;;;;;5445921;26;22622;-65
2024/04/18 13:14:13;;;;;;;;;;;12.80;60.90;;;;;;5459957;26;20016;-66
2024/04/18 13:16:42;;;;;;;;;;;12.70;61.70;;;;;;5452444;26;20440;-65
2024/04/18 13:19:12;;;;;;;;;;;12.80;62.40;;;;;;5452531;26;20409;-67
2024/04/18 13:21:41;;;;;;;;;;;13.00;62.80;;;;;;5458902;26;19944;-62
2024/04/18 13:24:13;;;;;;;;;;;13.10;62.80;;;;;;5455498;26;19943;-61
2024/04/18 13:26:50;;;;;;;;;;;13.20;63.10;;;;;;5455582;26;20180;-64
2024/04/18 13:29:19;;;;;;;;;;;13.10;63.40;;;;;;5450051;26;20557;-64
2024/04/18 13:31:48;;;;;;;;;;;13.10;63.20;;;;;;5456243;26;19928;-64
2024/04/18 13:34:22;;;;;;;;;;;13.10;63.50;;;;;;5455127;26;19935;-63
2024/04/18 13:36:51;;;;;;;;;;;13.10;64.80;;;;;;5462842;26;19974;-63
2024/04/18 13:39:23;;;;;;;;;;;13.20;64.60;;;;;;5455801;26;19932;-63
2024/04/18 13:42:07;;;;;;;;;;;13.20;63.20;;;;;;5456165;26;19928;-63
2024/04/18 13:44:56;;;;;;;;;;;13.20;61.60;;;;;;5453744;26;19940;-64
2024/04/18 13:47:25;;;;;;;;;;;13.20;60.70;;;;;;5453558;26;19995;-63
2024/04/18 13:49:53;;;;;;;;;;;13.20;60.60;;;;;;5435445;26;19956;-64
2024/04/18 13:52:22;;;;;;;;;;;13.20;60.40;;;;;;5449228;26;19954;-64
2024/04/18 13:55:09;;;;;;;;;;;13.10;60.20;;;;;;5454959;26;19928;-65
2024/04/18 13:57:38;;;;;;;;;;;13.10;60.20;;;;;;5462354;26;20378;-64
2024/04/18 14:00:21;;;;;;;;;;;13.20;60.30;;;;;;5460260;26;19939;-65
2024/04/18 14:03:10;;;;;;;;;;;13.20;59.70;;;;;;5458825;26;19955;-65
2024/04/18 14:05:59;;;;;;;;;;;13.30;59.20;;;;;;5460641;26;19937;-64
2024/04/18 14:08:40;;;;;;;;;;;13.30;58.80;;;;;;5460099;26;19928;-64
2024/04/18 14:11:30;;;;;;;;;;;13.40;58.40;;;;;;5434655;26;19943;-63
2024/04/18 14:14:09;;;;;;;;;;;13.40;57.60;;;;;;5457307;26;19928;-64
2024/04/18 14:19:33;;;;;;;;;;;13.40;57.90;;;;;;5462188;26;20379;-63
2024/04/18 14:22:08;;;;;;;;;;;13.30;57.60;;;;;;5457730;26;19928;-64
2024/04/18 14:24:39;;;;;;;;;;;13.20;57.20;;;;;;5458956;26;20272;-64
2024/04/18 14:27:11;;;;;;;;;;;13.20;57.20;;;;;;5454839;26;20360;-65
2024/04/18 14:29:59;;;;;;;;;;;13.10;57.60;;;;;;5446046;26;19936;-65
2024/04/18 14:32:37;;;;;;;;;;;13.10;57.60;;;;;;5458448;26;20321;-63
2024/04/18 14:35:06;;;;;;;;;;;12.90;57.70;;;;;;5456594;26;20435;-65
2024/04/18 14:37:35;;;;;;;;;;;12.90;57.80;;;;;;5445356;26;21471;-64
2024/04/18 14:40:03;;;;;;;;;;;12.90;57.60;;;;;;5459632;26;19928;-63
2024/04/18 14:42:35;;;;;;;;;;;13.00;57.80;;;;;;5451884;26;19944;-64
2024/04/18 14:45:04;;;;;;;;;;;13.00;56.70;;;;;;5441207;26;19940;-64
2024/04/18 14:47:32;;;;;;;;;;;13.10;56.50;;;;;;5451828;26;19980;-63
2024/04/18 14:50:01;;;;;;;;;;;13.10;56.40;;;;;;5455661;26;19936;-63
2024/04/18 14:52:37;;;;;;;;;;;13.20;56.60;;;;;;5437834;26;20359;-63
2024/04/18 14:55:29;;;;;;;;;;;13.20;55.70;;;;;;5452104;26;19937;-64
2024/04/18 14:58:18;;;;;;;;;;;13.10;54.40;;;;;;5459153;26;19932;-63
2024/04/18 15:00:50;;;;;;;;;;;13.10;54.60;;;;;;5453598;26;19928;-63
2024/04/18 15:03:18;;;;;;;;;;;13.20;54.60;;;;;;5446299;26;20316;-63
2024/04/18 15:05:51;;;;;;;;;;;13.20;55.30;;;;;;5449718;26;20359;-63
2024/04/18 15:08:38;;;;;;;;;;;13.30;55.30;;;;;;5455770;26;19928;-63